createdAt,value
2019-01-15T00:02:00.000Z,98317
2019-01-15T00:07:00.000Z,98327
2019-01-15T00:12:00.000Z,98327
2019-01-15T00:17:00.000Z,98329
2019-01-15T00:22:00.000Z,98324
2019-01-15T00:27:00.000Z,98328
2019-01-15T00:32:00.000Z,98331
2019-01-15T00:37:00.000Z,98329
2019-01-15T00:42:00.000Z,98328
2019-01-15T00:47:00.000Z,98330
2019-01-15T00:52:00.000Z,98331
2019-01-15T00:57:00.000Z,98327
2019-01-15T01:02:00.000Z,98328
2019-01-15T01:07:00.000Z,98326
2019-01-15T01:12:00.000Z,98340
2019-01-15T01:17:00.000Z,98337
2019-01-15T01:22:00.000Z,98363
2019-01-15T01:27:00.000Z,98342
2019-01-15T01:32:00.000Z,98355
2019-01-15T01:37:00.000Z,98367
2019-01-15T01:42:00.000Z,98375
2019-01-15T01:47:00.000Z,98364
2019-01-15T01:52:00.000Z,98370
2019-01-15T01:57:00.000Z,98358
2019-01-15T02:02:00.000Z,98381
2019-01-15T02:07:00.000Z,98387
2019-01-15T02:12:00.000Z,98392
2019-01-15T02:17:00.000Z,98393
2019-01-15T02:22:00.000Z,98374
2019-01-15T02:27:00.000Z,98380
2019-01-15T02:32:00.000Z,98377
2019-01-15T02:37:00.000Z,98388
2019-01-15T02:42:00.000Z,98391
2019-01-15T02:47:00.000Z,98388
2019-01-15T02:52:00.000Z,98384
2019-01-15T02:57:00.000Z,98396
2019-01-15T03:02:00.000Z,98382
2019-01-15T03:07:00.000Z,98382
2019-01-15T03:12:00.000Z,98387
2019-01-15T03:17:00.000Z,98396
2019-01-15T03:22:00.000Z,98380
2019-01-15T03:27:00.000Z,98382
2019-01-15T03:32:00.000Z,98385
2019-01-15T03:38:00.000Z,98388
2019-01-15T03:43:00.000Z,98396
2019-01-15T03:48:00.000Z,98394
2019-01-15T03:53:00.000Z,98403
2019-01-15T03:58:00.000Z,98397
2019-01-15T04:03:00.000Z,98384
2019-01-15T04:08:00.000Z,98379
2019-01-15T04:13:00.000Z,98378
2019-01-15T04:18:00.000Z,98388
2019-01-15T04:23:00.000Z,98391
2019-01-15T04:28:00.000Z,98385
2019-01-15T04:33:00.000Z,98381
2019-01-15T04:38:00.000Z,98397
2019-01-15T04:43:00.000Z,98374
2019-01-15T04:48:00.000Z,98388
2019-01-15T04:53:00.000Z,98390
2019-01-15T04:58:00.000Z,98396
2019-01-15T05:03:00.000Z,98389
2019-01-15T05:08:00.000Z,98383
2019-01-15T05:13:00.000Z,98370
2019-01-15T05:18:00.000Z,98379
2019-01-15T05:23:00.000Z,98388
2019-01-15T05:28:00.000Z,98391
2019-01-15T05:33:00.000Z,98399
2019-01-15T05:38:00.000Z,98412
2019-01-15T05:43:00.000Z,98404
2019-01-15T05:48:00.000Z,98406
2019-01-15T05:53:00.000Z,98406
2019-01-15T05:58:00.000Z,98404
2019-01-15T06:03:00.000Z,98408
2019-01-15T06:08:00.000Z,98411
2019-01-15T06:13:00.000Z,98407
2019-01-15T06:18:00.000Z,98432
2019-01-15T06:23:00.000Z,98426
2019-01-15T06:28:00.000Z,98423
2019-01-15T06:33:00.000Z,98444
2019-01-15T06:38:00.000Z,98444
2019-01-15T06:43:00.000Z,98447
2019-01-15T06:48:00.000Z,98473
2019-01-15T06:53:00.000Z,98477
2019-01-15T06:58:00.000Z,98478
2019-01-15T07:03:00.000Z,98505
2019-01-15T07:08:00.000Z,98490
2019-01-15T07:13:00.000Z,98514
2019-01-15T07:18:00.000Z,98507
2019-01-15T07:23:00.000Z,98539
2019-01-15T07:28:00.000Z,98550
2019-01-15T07:34:00.000Z,98540
2019-01-15T07:39:00.000Z,98548
2019-01-15T07:44:00.000Z,98564
2019-01-15T07:49:00.000Z,98566
2019-01-15T07:54:00.000Z,98587
2019-01-15T07:59:00.000Z,98588
2019-01-15T08:04:00.000Z,98597
2019-01-15T08:09:00.000Z,98596
2019-01-15T08:14:00.000Z,98602
2019-01-15T08:19:00.000Z,98611
2019-01-15T08:24:00.000Z,98628
2019-01-15T08:29:00.000Z,98641
2019-01-15T08:34:00.000Z,98634
2019-01-15T08:39:00.000Z,98638
2019-01-15T08:44:00.000Z,98642
2019-01-15T08:49:00.000Z,98653
2019-01-15T08:54:00.000Z,98640
2019-01-15T08:59:00.000Z,98645
2019-01-15T09:04:00.000Z,98646
2019-01-15T09:09:00.000Z,98639
2019-01-15T09:14:00.000Z,98645
2019-01-15T09:19:00.000Z,98636
2019-01-15T09:24:00.000Z,98627
2019-01-15T09:29:00.000Z,98638
2019-01-15T09:34:00.000Z,98629
2019-01-15T09:39:00.000Z,98634
2019-01-15T09:44:00.000Z,98627
2019-01-15T09:49:00.000Z,98628
2019-01-15T09:54:00.000Z,98612
2019-01-15T09:59:00.000Z,98613
2019-01-15T10:04:00.000Z,98628
2019-01-15T10:09:00.000Z,98623
2019-01-15T10:14:00.000Z,98628
2019-01-15T10:19:00.000Z,98613
2019-01-15T10:24:00.000Z,98613
2019-01-15T10:29:00.000Z,98602
2019-01-15T10:34:00.000Z,98593
2019-01-15T10:39:00.000Z,98596
2019-01-15T10:44:00.000Z,98575
2019-01-15T10:49:00.000Z,98580
2019-01-15T10:54:00.000Z,98568
2019-01-15T10:59:00.000Z,98563
2019-01-15T11:04:00.000Z,98580
2019-01-15T11:09:00.000Z,98563
2019-01-15T11:14:00.000Z,98533
2019-01-15T11:19:00.000Z,98559
2019-01-15T11:24:00.000Z,98545
2019-01-15T11:29:00.000Z,98554
2019-01-15T11:34:00.000Z,98543
2019-01-15T11:40:00.000Z,98561
2019-01-15T11:45:00.000Z,98545
2019-01-15T11:50:00.000Z,98536
2019-01-15T11:55:00.000Z,98537
2019-01-15T12:00:00.000Z,98546
2019-01-15T12:05:00.000Z,98544
2019-01-15T12:10:00.000Z,98530
2019-01-15T12:15:00.000Z,98527
2019-01-15T12:20:00.000Z,98511
2019-01-15T12:25:00.000Z,98530
2019-01-15T12:30:00.000Z,98505
2019-01-15T12:35:00.000Z,98525
2019-01-15T12:40:00.000Z,98501
2019-01-15T12:45:00.000Z,98493
2019-01-15T12:50:00.000Z,98497
2019-01-15T12:55:00.000Z,98507
2019-01-15T13:00:00.000Z,98500
2019-01-15T13:05:00.000Z,98490
2019-01-15T13:10:00.000Z,98482
2019-01-15T13:15:00.000Z,98512
2019-01-15T13:20:00.000Z,98460
2019-01-15T13:25:00.000Z,98499
2019-01-15T13:30:00.000Z,98509
2019-01-15T13:35:00.000Z,98494
2019-01-15T13:40:00.000Z,98479
2019-01-15T13:45:00.000Z,98495
2019-01-15T13:50:00.000Z,98502
2019-01-15T13:55:00.000Z,98492
2019-01-15T14:00:00.000Z,98494
2019-01-15T14:05:00.000Z,98488
2019-01-15T14:10:00.000Z,98502
2019-01-15T14:15:00.000Z,98465
2019-01-15T14:20:00.000Z,98482
2019-01-15T14:25:00.000Z,98461
2019-01-15T14:30:00.000Z,98443
2019-01-15T14:35:00.000Z,98444
2019-01-15T14:40:00.000Z,98432
2019-01-15T14:45:00.000Z,98479
2019-01-15T14:51:00.000Z,98464
2019-01-15T14:56:00.000Z,98459
2019-01-15T15:01:00.000Z,98455
2019-01-15T15:06:00.000Z,98504
2019-01-15T15:11:00.000Z,98477
2019-01-15T15:16:00.000Z,98466
2019-01-15T15:21:00.000Z,98479
2019-01-15T15:26:00.000Z,98463
2019-01-15T15:31:00.000Z,98456
2019-01-15T15:36:00.000Z,98457
2019-01-15T15:41:00.000Z,98443
2019-01-15T15:46:00.000Z,98480
2019-01-15T15:51:00.000Z,98465
2019-01-15T15:56:00.000Z,98497
2019-01-15T16:01:00.000Z,98473
2019-01-15T16:06:00.000Z,98477
2019-01-15T16:11:00.000Z,98471
2019-01-15T16:16:00.000Z,98475
2019-01-15T16:21:00.000Z,98461
2019-01-15T16:26:00.000Z,98450
2019-01-15T16:31:00.000Z,98480
2019-01-15T16:36:00.000Z,98467
2019-01-15T16:41:00.000Z,98448
2019-01-15T16:46:00.000Z,98436
2019-01-15T16:51:00.000Z,98445
2019-01-15T16:56:00.000Z,98446
2019-01-15T17:01:00.000Z,98451
2019-01-15T17:06:00.000Z,98438
2019-01-15T17:11:00.000Z,98447
2019-01-15T17:16:00.000Z,98442
2019-01-15T17:21:00.000Z,98452
2019-01-15T17:26:00.000Z,98440
2019-01-15T17:31:00.000Z,98449
2019-01-15T17:36:00.000Z,98444
2019-01-15T17:41:00.000Z,98458
2019-01-15T17:46:00.000Z,98452
2019-01-15T17:51:00.000Z,98461
2019-01-15T17:56:00.000Z,98449
2019-01-15T18:01:00.000Z,98449
2019-01-15T18:06:00.000Z,98444
2019-01-15T18:11:00.000Z,98458
2019-01-15T18:16:00.000Z,98458
2019-01-15T18:21:00.000Z,98454
2019-01-15T18:26:00.000Z,98438
2019-01-15T18:31:00.000Z,98449
2019-01-15T18:36:00.000Z,98448
2019-01-15T18:41:00.000Z,98453
2019-01-15T18:46:00.000Z,98448
2019-01-15T18:51:00.000Z,98439
2019-01-15T18:56:00.000Z,98423
2019-01-15T19:01:00.000Z,98446
2019-01-15T19:06:00.000Z,98450
2019-01-15T19:11:00.000Z,98444
2019-01-15T19:17:00.000Z,98453
2019-01-15T19:22:00.000Z,98427
2019-01-15T19:27:00.000Z,98443
2019-01-15T19:32:00.000Z,98406
2019-01-15T19:37:00.000Z,98421
2019-01-15T19:42:00.000Z,98419
2019-01-15T19:47:00.000Z,98418
2019-01-15T19:52:00.000Z,98410
2019-01-15T19:57:00.000Z,98437
2019-01-15T20:02:00.000Z,98438
2019-01-15T20:07:00.000Z,98456
2019-01-15T20:12:00.000Z,98450
2019-01-15T20:17:00.000Z,98449
2019-01-15T20:22:00.000Z,98466
2019-01-15T20:27:00.000Z,98478
2019-01-15T20:32:00.000Z,98442
2019-01-15T20:37:00.000Z,98458
2019-01-15T20:42:00.000Z,98444
2019-01-15T20:47:00.000Z,98445
2019-01-15T20:52:00.000Z,98429
2019-01-15T20:57:00.000Z,98435
2019-01-15T21:02:00.000Z,98437
2019-01-15T21:07:00.000Z,98429
2019-01-15T21:12:00.000Z,98447
2019-01-15T21:17:00.000Z,98437
2019-01-15T21:22:00.000Z,98431
2019-01-15T21:27:00.000Z,98455
2019-01-15T21:32:00.000Z,98398
2019-01-15T21:37:00.000Z,98437
2019-01-15T21:42:00.000Z,98417
2019-01-15T21:47:00.000Z,98431
2019-01-15T21:52:00.000Z,98423
2019-01-15T21:57:00.000Z,98424
2019-01-15T22:02:00.000Z,98415
2019-01-15T22:07:00.000Z,98404
2019-01-15T22:12:00.000Z,98424
2019-01-15T22:17:00.000Z,98420
2019-01-15T22:22:00.000Z,98430
2019-01-15T22:27:00.000Z,98441
2019-01-15T22:32:00.000Z,98430
2019-01-15T22:37:00.000Z,98451
2019-01-15T22:42:00.000Z,98439
2019-01-15T22:47:00.000Z,98443
2019-01-15T22:52:00.000Z,98442
2019-01-15T22:57:00.000Z,98448
2019-01-15T23:02:00.000Z,98431
2019-01-15T23:07:00.000Z,98402
2019-01-15T23:13:00.000Z,98364
2019-01-15T23:18:00.000Z,98388
2019-01-15T23:23:00.000Z,98371
2019-01-15T23:28:00.000Z,98376
2019-01-15T23:33:00.000Z,98400
2019-01-15T23:38:00.000Z,98366
2019-01-15T23:43:00.000Z,98340
2019-01-15T23:48:00.000Z,98365
2019-01-15T23:53:00.000Z,98364
2019-01-15T23:58:00.000Z,98352
